createdAt,value
2022-07-27T00:29:18.693Z,0
2022-07-27T00:29:59.278Z,0
2022-07-27T00:30:39.716Z,0
2022-07-27T00:35:23.204Z,0
2022-07-27T00:36:03.716Z,0
2022-07-27T00:36:44.183Z,0
2022-07-27T00:37:24.648Z,0
2022-07-27T00:38:05.110Z,0
2022-07-27T00:38:45.590Z,0
2022-07-27T00:39:26.049Z,0
2022-07-27T00:40:06.510Z,0
2022-07-27T00:41:27.489Z,0
2022-07-27T00:42:07.933Z,0
2022-07-27T00:49:33.313Z,0
2022-07-27T00:50:13.779Z,0
2022-07-27T00:50:54.283Z,0
2022-07-27T00:51:34.746Z,0
2022-07-27T00:52:15.223Z,0
2022-07-27T00:52:55.704Z,0
2022-07-27T00:53:36.157Z,0
2022-07-27T00:54:16.689Z,0
2022-07-27T00:54:57.126Z,0
2022-07-27T00:55:37.633Z,0
2022-07-27T01:03:08.624Z,0
2022-07-27T01:03:43.920Z,0
2022-07-27T01:04:24.454Z,0
2022-07-27T01:05:04.918Z,0
2022-07-27T01:05:45.365Z,0
2022-07-27T01:06:27.201Z,0
2022-07-27T01:07:06.279Z,0
2022-07-27T01:07:46.750Z,0
2022-07-27T01:08:27.247Z,0
2022-07-27T01:09:07.738Z,0
2022-07-27T01:16:33.164Z,0
2022-07-27T01:17:13.618Z,0
2022-07-27T01:17:54.137Z,0
2022-07-27T01:18:34.605Z,0
2022-07-27T01:19:15.418Z,0
2022-07-27T01:19:55.536Z,0
2022-07-27T01:20:36.009Z,0
2022-07-27T01:21:16.502Z,0
2022-07-27T01:21:56.996Z,0
2022-07-27T01:22:37.477Z,0
2022-07-27T01:23:17.953Z,0
2022-07-27T01:30:43.613Z,0
2022-07-27T01:31:24.111Z,0
2022-07-27T01:32:04.556Z,0
2022-07-27T01:32:45.017Z,0
2022-07-27T01:33:25.484Z,0
2022-07-27T01:34:05.968Z,0
2022-07-27T01:34:46.450Z,0
2022-07-27T01:35:26.943Z,0
2022-07-27T01:36:07.420Z,0
2022-07-27T01:36:47.910Z,0
2022-07-27T01:44:13.237Z,0
2022-07-27T01:44:53.687Z,0
2022-07-27T01:45:34.169Z,0
2022-07-27T01:46:14.695Z,0
2022-07-27T01:46:55.221Z,0
2022-07-27T01:47:35.631Z,0
2022-07-27T01:48:16.119Z,0
2022-07-27T01:48:56.631Z,0
2022-07-27T01:49:37.383Z,0
2022-07-27T01:50:17.665Z,0
2022-07-27T01:50:58.088Z,0
2022-07-27T01:58:23.281Z,0
2022-07-27T01:59:03.747Z,0
2022-07-27T01:59:44.230Z,0
2022-07-27T02:00:24.706Z,0
2022-07-27T02:01:05.208Z,0
2022-07-27T02:01:45.762Z,0
2022-07-27T02:02:26.157Z,0
2022-07-27T02:03:06.634Z,0
2022-07-27T02:03:47.118Z,0
2022-07-27T02:04:27.610Z,0
2022-07-27T02:05:08.183Z,0
2022-07-27T02:12:33.340Z,0
2022-07-27T02:13:22.072Z,0
2022-07-27T02:13:54.227Z,0
2022-07-27T02:14:34.774Z,0
2022-07-27T02:15:15.759Z,0
2022-07-27T02:15:55.835Z,0
2022-07-27T02:16:36.928Z,0
2022-07-27T02:17:17.342Z,0
2022-07-27T02:17:57.833Z,0
2022-07-27T02:26:03.477Z,0
2022-07-27T02:26:43.931Z,0
2022-07-27T02:27:24.457Z,0
2022-07-27T02:28:04.933Z,0
2022-07-27T02:28:45.383Z,0
2022-07-27T02:29:25.868Z,0
2022-07-27T02:30:06.341Z,0
2022-07-27T02:30:46.823Z,0
2022-07-27T02:31:27.253Z,0
2022-07-27T02:32:07.739Z,0
2022-07-27T02:39:33.551Z,0
2022-07-27T02:40:13.996Z,0
2022-07-27T02:40:54.425Z,0
2022-07-27T02:41:34.875Z,0
2022-07-27T02:42:15.362Z,0
2022-07-27T02:42:55.858Z,0
2022-07-27T02:43:36.345Z,0
2022-07-27T02:44:16.864Z,0
2022-07-27T02:44:57.332Z,0
2022-07-27T02:45:37.859Z,0
2022-07-27T02:53:43.478Z,0
2022-07-27T02:54:23.943Z,0
2022-07-27T02:55:04.473Z,0
2022-07-27T02:55:44.903Z,0
2022-07-27T02:56:26.662Z,0
2022-07-27T02:57:05.848Z,0
2022-07-27T02:57:46.361Z,0
2022-07-27T02:58:26.811Z,0
2022-07-27T02:59:07.301Z,0
2022-07-27T02:59:47.773Z,0
2022-07-27T03:07:53.564Z,0
2022-07-27T03:08:34.011Z,0
2022-07-27T03:09:14.820Z,0
2022-07-27T03:09:54.970Z,0
2022-07-27T03:10:35.415Z,0
2022-07-27T03:11:15.879Z,0
2022-07-27T03:11:56.341Z,0
2022-07-27T03:12:36.866Z,0
2022-07-27T03:13:17.353Z,0
2022-07-27T03:13:57.826Z,0
2022-07-27T03:21:23.148Z,0
2022-07-27T03:22:03.693Z,0
2022-07-27T03:22:44.216Z,0
2022-07-27T03:23:24.669Z,0
2022-07-27T03:24:05.098Z,0
2022-07-27T03:24:46.433Z,0
2022-07-27T03:25:26.911Z,0
2022-07-27T03:26:07.371Z,0
2022-07-27T03:26:47.856Z,0
2022-07-27T03:34:13.111Z,0
2022-07-27T03:34:53.593Z,0
2022-07-27T03:35:34.030Z,0
2022-07-27T03:36:14.495Z,0
2022-07-27T03:36:54.961Z,0
2022-07-27T03:37:35.427Z,0
2022-07-27T03:38:15.911Z,0
2022-07-27T03:38:56.398Z,0
2022-07-27T03:39:36.843Z,0
2022-07-27T03:40:17.299Z,0
2022-07-27T03:40:57.801Z,0
2022-07-27T03:49:13.764Z,0
2022-07-27T03:49:44.094Z,0
2022-07-27T03:50:24.603Z,0
2022-07-27T03:51:05.055Z,0
2022-07-27T03:51:45.543Z,0
2022-07-27T03:52:26.005Z,0
2022-07-27T03:53:06.513Z,0
2022-07-27T03:53:46.971Z,0
2022-07-27T03:54:27.492Z,0
2022-07-27T03:58:07.683Z,0
2022-07-27T03:58:48.067Z,0
2022-07-27T03:59:28.553Z,0
2022-07-27T04:04:52.489Z,0
2022-07-27T04:05:33.003Z,0
2022-07-27T04:06:13.478Z,5
2022-07-27T04:06:53.948Z,5
2022-07-27T04:07:34.537Z,5
2022-07-27T04:08:15.003Z,5
2022-07-27T04:08:59.529Z,5
2022-07-27T04:09:36.020Z,5
2022-07-27T04:10:16.508Z,5
2022-07-27T04:10:57.003Z,5
2022-07-27T04:17:03.204Z,25
2022-07-27T04:17:53.783Z,20
2022-07-27T04:18:24.104Z,20
2022-07-27T04:19:04.615Z,20
2022-07-27T04:19:45.149Z,25
2022-07-27T04:20:26.198Z,25
2022-07-27T04:21:06.618Z,25
2022-07-27T04:21:47.060Z,25
2022-07-27T04:29:15.804Z,35
2022-07-27T04:29:53.014Z,35
2022-07-27T04:30:33.511Z,40
2022-07-27T04:31:14.123Z,40
2022-07-27T04:31:54.505Z,40
2022-07-27T04:32:34.960Z,45
2022-07-27T04:33:15.434Z,45
2022-07-27T04:33:55.930Z,45
2022-07-27T04:34:36.443Z,50
2022-07-27T04:35:16.888Z,50
2022-07-27T04:42:48.625Z,60
2022-07-27T04:43:22.849Z,65
2022-07-27T04:44:03.545Z,65
2022-07-27T04:44:44.020Z,65
2022-07-27T04:45:24.544Z,70
2022-07-27T04:46:05.049Z,70
2022-07-27T04:46:45.568Z,70
2022-07-27T04:47:26.034Z,75
2022-07-27T04:48:06.572Z,75
2022-07-27T04:51:41.510Z,85
2022-07-27T04:52:25.518Z,85
2022-07-27T04:53:02.556Z,85
2022-07-27T04:53:52.255Z,85
2022-07-27T04:58:26.519Z,95
2022-07-27T04:59:06.969Z,95
2022-07-27T04:59:47.440Z,100
2022-07-27T05:00:27.992Z,105
2022-07-27T05:01:08.638Z,100
2022-07-27T05:01:49.162Z,105
2022-07-27T05:02:29.600Z,110
2022-07-27T05:03:10.243Z,110
2022-07-27T05:07:16.627Z,125
2022-07-27T05:07:57.220Z,130
2022-07-27T05:08:38.635Z,135
2022-07-27T05:09:22.324Z,135
2022-07-27T05:09:59.998Z,135
2022-07-27T05:10:40.529Z,140
2022-07-27T05:11:21.318Z,150
2022-07-27T05:18:06.503Z,160
2022-07-27T05:18:46.983Z,170
2022-07-27T05:19:40.033Z,165
2022-07-27T05:20:07.960Z,170
2022-07-27T05:20:48.464Z,175
2022-07-27T05:21:28.927Z,175
2022-07-27T05:28:16.674Z,210
2022-07-27T05:28:57.247Z,210
2022-07-27T05:29:37.690Z,215
2022-07-27T05:30:18.239Z,220
2022-07-27T05:33:58.258Z,235
2022-07-27T05:34:37.950Z,235
2022-07-27T05:35:18.416Z,235
2022-07-27T05:35:58.905Z,235
2022-07-27T05:40:42.463Z,260
2022-07-27T05:41:23.026Z,260
2022-07-27T05:42:03.473Z,265
2022-07-27T05:42:44.099Z,265
2022-07-27T05:43:24.557Z,270
2022-07-27T05:44:05.023Z,275
2022-07-27T05:44:45.558Z,285
2022-07-27T05:45:26.111Z,285
2022-07-27T05:46:06.696Z,290
2022-07-27T05:46:47.116Z,285
2022-07-27T05:53:32.278Z,330
2022-07-27T06:32:20.842Z,945
2022-07-27T06:33:01.463Z,945
2022-07-27T06:33:42.077Z,940
2022-07-27T06:37:05.587Z,950
2022-07-27T06:37:46.286Z,940
2022-07-27T06:38:26.762Z,940
2022-07-27T06:39:07.408Z,940
2022-07-27T06:39:48.070Z,955
2022-07-27T06:40:29.861Z,950
2022-07-27T06:41:49.770Z,255
2022-07-27T06:48:35.501Z,980
2022-07-27T06:49:16.816Z,905
2022-07-27T06:49:56.612Z,705
2022-07-27T06:50:37.229Z,510
2022-07-27T06:51:17.820Z,335
2022-07-27T06:51:58.346Z,385
2022-07-27T06:52:38.925Z,380
2022-07-27T06:53:21.259Z,375
2022-07-27T06:53:59.984Z,375
2022-07-27T06:57:27.914Z,360
2022-07-27T06:58:19.288Z,350
2022-07-27T06:58:56.784Z,350
2022-07-27T06:59:42.459Z,350
2022-07-27T07:00:18.074Z,355
2022-07-27T07:03:59.272Z,355
2022-07-27T07:04:39.589Z,350
2022-07-27T07:05:20.304Z,345
2022-07-27T07:08:03.352Z,345
2022-07-27T07:08:43.901Z,340
2022-07-27T07:09:24.397Z,340
2022-07-27T07:10:04.979Z,345
2022-07-27T07:10:45.875Z,340
2022-07-27T07:11:26.329Z,340
2022-07-27T07:12:07.577Z,340
2022-07-27T07:16:53.581Z,320
2022-07-27T07:17:33.207Z,315
2022-07-27T07:18:14.017Z,325
2022-07-27T07:18:54.454Z,320
2022-07-27T07:19:35.082Z,320
2022-07-27T07:20:15.837Z,320
2022-07-27T07:20:56.210Z,315
2022-07-27T07:25:55.586Z,300
2022-07-27T07:26:36.095Z,300
2022-07-27T07:27:16.656Z,295
2022-07-27T07:30:40.076Z,195
2022-07-27T07:31:20.806Z,260
2022-07-27T07:32:01.310Z,65
2022-07-27T07:32:41.860Z,70
2022-07-27T07:33:22.414Z,65
2022-07-27T07:34:03.156Z,215
2022-07-27T07:34:43.652Z,205
2022-07-27T07:35:24.266Z,195
2022-07-27T07:36:08.966Z,180
2022-07-27T07:42:11.069Z,135
2022-07-27T07:42:50.965Z,145
2022-07-27T07:43:31.566Z,140
2022-07-27T07:44:12.183Z,140
2022-07-27T07:44:52.686Z,135
2022-07-27T07:45:33.126Z,130
2022-07-27T07:46:13.803Z,125
2022-07-27T07:46:55.687Z,125
2022-07-27T07:49:00.207Z,125
2022-07-27T07:49:40.584Z,125
2022-07-27T07:50:21.808Z,125
2022-07-27T07:51:03.183Z,120
2022-07-27T07:51:44.229Z,90
2022-07-27T07:55:50.069Z,65
2022-07-27T07:56:30.546Z,105
2022-07-27T07:57:10.985Z,100
2022-07-27T07:57:52.062Z,100
2022-07-27T07:58:32.085Z,100
2022-07-27T07:59:12.985Z,100
2022-07-27T07:59:53.520Z,90
2022-07-27T08:00:34.102Z,80
2022-07-27T08:01:14.814Z,95
2022-07-27T08:08:53.192Z,95
2022-07-27T08:09:33.885Z,95
2022-07-27T08:10:14.338Z,95
2022-07-27T08:12:56.768Z,50
2022-07-27T08:13:37.316Z,50
2022-07-27T08:14:18.024Z,50
2022-07-27T08:14:58.700Z,50
2022-07-27T08:15:39.343Z,50
2022-07-27T08:16:19.967Z,50
2022-07-27T08:17:00.541Z,50
2022-07-27T08:17:41.644Z,50
2022-07-27T08:24:59.168Z,45
2022-07-27T08:25:40.135Z,45
2022-07-27T08:26:21.161Z,45
2022-07-27T08:27:02.333Z,45
2022-07-27T08:30:30.433Z,80
2022-07-27T08:31:14.089Z,85
2022-07-27T08:31:53.059Z,85
2022-07-27T08:32:32.674Z,85
2022-07-27T08:33:13.948Z,85
2022-07-27T08:35:58.591Z,90
2022-07-27T08:36:39.643Z,90
2022-07-27T08:37:20.565Z,85
2022-07-27T08:38:01.652Z,55
2022-07-27T08:38:42.622Z,55
2022-07-27T08:40:06.127Z,55
2022-07-27T08:42:50.199Z,45
2022-07-27T08:43:32.939Z,45
2022-07-27T08:47:40.902Z,50
2022-07-27T08:48:21.847Z,45
2022-07-27T08:54:03.193Z,55
2022-07-27T08:54:44.589Z,55
2022-07-27T08:55:25.463Z,55
2022-07-27T08:56:06.082Z,55
2022-07-27T08:57:27.625Z,55
2022-07-27T08:58:08.253Z,55
2022-07-27T08:58:48.796Z,55
2022-07-27T08:59:29.343Z,60
2022-07-27T09:00:10.045Z,60
2022-07-27T09:00:51.197Z,60
2022-07-27T09:01:31.672Z,60
2022-07-27T09:02:12.246Z,60
2022-07-27T09:08:58.000Z,75
2022-07-27T09:09:38.581Z,75
2022-07-27T09:10:19.083Z,75
2022-07-27T09:11:00.050Z,55
2022-07-27T09:13:39.621Z,60
2022-07-27T09:14:21.458Z,45
2022-07-27T09:15:02.049Z,50
2022-07-27T09:16:12.739Z,45
2022-07-27T09:16:44.420Z,45
2022-07-27T09:21:23.682Z,70
2022-07-27T09:22:04.508Z,55
2022-07-27T09:22:45.320Z,55
2022-07-27T09:29:08.682Z,70
2022-07-27T09:29:49.934Z,60
2022-07-27T09:30:30.997Z,65
2022-07-27T09:31:12.249Z,65
2022-07-27T09:36:44.796Z,55
2022-07-27T09:37:25.224Z,55
2022-07-27T09:38:06.192Z,55
2022-07-27T09:38:49.627Z,55
2022-07-27T09:42:09.357Z,55
2022-07-27T09:43:05.954Z,55
2022-07-27T09:44:53.799Z,50
2022-07-27T09:45:32.814Z,60
2022-07-27T09:46:12.702Z,55
2022-07-27T09:46:53.244Z,50
2022-07-27T09:47:33.648Z,50
2022-07-27T09:48:14.262Z,50
2022-07-27T09:54:19.226Z,40
2022-07-27T09:54:59.830Z,40
2022-07-27T09:55:40.254Z,40
2022-07-27T09:56:20.841Z,40
2022-07-27T09:57:01.389Z,40
2022-07-27T09:57:42.089Z,40
2022-07-27T09:58:22.635Z,40
2022-07-27T09:59:03.261Z,40
2022-07-27T09:59:43.704Z,45
2022-07-27T10:00:24.230Z,45
2022-07-27T10:06:35.787Z,45
2022-07-27T10:12:08.747Z,50
2022-07-27T10:12:53.915Z,50
2022-07-27T10:13:29.743Z,50
2022-07-27T10:16:53.087Z,50
2022-07-27T10:17:33.551Z,50
2022-07-27T10:18:14.324Z,50
2022-07-27T10:18:55.754Z,50
2022-07-27T10:19:35.389Z,50
2022-07-27T10:20:15.894Z,50
2022-07-27T10:20:56.434Z,50
2022-07-27T10:21:37.126Z,55
2022-07-27T10:22:17.625Z,55
2022-07-27T10:27:43.455Z,55
2022-07-27T10:28:24.631Z,55
2022-07-27T10:29:05.283Z,55
2022-07-27T10:30:27.463Z,65
2022-07-27T10:31:06.965Z,65
2022-07-27T10:31:47.407Z,60
2022-07-27T10:35:53.498Z,60
2022-07-27T10:36:34.687Z,60
2022-07-27T10:37:15.203Z,60
2022-07-27T10:37:55.909Z,60
2022-07-27T10:38:36.470Z,55
2022-07-27T10:39:16.903Z,55
2022-07-27T10:39:57.333Z,55
2022-07-27T10:44:43.383Z,45
2022-07-27T10:45:24.084Z,50
2022-07-27T10:46:04.847Z,50
2022-07-27T10:46:46.247Z,50
2022-07-27T10:47:26.761Z,40
2022-07-27T10:48:07.264Z,40
2022-07-27T10:52:53.030Z,40
2022-07-27T10:53:43.893Z,45
2022-07-27T10:54:14.064Z,45
2022-07-27T10:54:59.659Z,45
2022-07-27T10:55:35.192Z,45
2022-07-27T10:56:56.231Z,45
2022-07-27T10:57:37.491Z,45
2022-07-27T11:02:12.876Z,50
2022-07-27T11:02:53.321Z,50
2022-07-27T11:03:34.349Z,50
2022-07-27T11:07:44.818Z,55
2022-07-27T11:09:27.625Z,60
2022-07-27T11:10:20.152Z,55
2022-07-27T11:11:00.670Z,55
2022-07-27T11:11:41.285Z,55
2022-07-27T11:18:28.214Z,75
2022-07-27T11:19:08.170Z,75
2022-07-27T11:19:48.657Z,75
2022-07-27T11:20:31.699Z,75
2022-07-27T11:21:09.690Z,75
2022-07-27T11:21:50.239Z,70
2022-07-27T11:22:45.950Z,75
2022-07-27T11:23:49.743Z,55
2022-07-27T11:23:52.076Z,70
2022-07-27T11:24:32.361Z,70
2022-07-27T11:30:37.723Z,50
2022-07-27T11:31:32.667Z,50
2022-07-27T11:31:59.230Z,50
2022-07-27T11:32:40.206Z,55
2022-07-27T11:33:20.867Z,50
2022-07-27T11:34:01.299Z,45
2022-07-27T11:34:41.962Z,50
2022-07-27T11:40:56.747Z,75
2022-07-27T11:41:47.811Z,70
2022-07-27T11:42:11.806Z,70
2022-07-27T11:42:49.257Z,70
2022-07-27T11:43:33.736Z,70
2022-07-27T11:44:10.674Z,70
2022-07-27T11:44:50.977Z,70
2022-07-27T11:45:31.264Z,65
2022-07-27T11:46:11.822Z,70
2022-07-27T11:46:52.305Z,65
2022-07-27T11:53:37.687Z,55
2022-07-27T11:54:18.310Z,50
2022-07-27T12:32:31.170Z,40
2022-07-27T12:33:12.831Z,40
2022-07-27T12:34:05.329Z,40
2022-07-27T12:34:35.109Z,40
2022-07-27T12:35:16.468Z,40
2022-07-27T12:35:57.274Z,55
2022-07-27T12:36:38.238Z,60
2022-07-27T12:37:19.418Z,60
2022-07-27T12:38:00.242Z,55
2022-07-27T12:41:25.846Z,45
2022-07-27T12:42:07.669Z,40
2022-07-27T12:42:49.810Z,40
2022-07-27T12:46:15.697Z,40
2022-07-27T12:46:56.504Z,40
2022-07-27T12:47:37.468Z,40
2022-07-27T12:48:18.418Z,40
2022-07-27T12:49:00.845Z,35
2022-07-27T12:51:55.706Z,40
2022-07-27T12:52:36.250Z,40
2022-07-27T12:53:17.591Z,40
2022-07-27T12:54:01.426Z,40
2022-07-27T12:54:45.042Z,40
2022-07-27T12:58:20.463Z,55
2022-07-27T12:59:01.705Z,55
2022-07-27T12:59:43.132Z,55
2022-07-27T13:02:22.507Z,40
2022-07-27T13:03:02.806Z,40
2022-07-27T13:03:43.255Z,40
2022-07-27T13:08:27.107Z,30
2022-07-27T13:09:07.852Z,30
2022-07-27T13:10:02.482Z,30
2022-07-27T13:10:28.864Z,30
2022-07-27T13:11:09.387Z,30
2022-07-27T13:11:49.856Z,30
2022-07-27T13:12:30.469Z,30
2022-07-27T13:13:10.967Z,30
2022-07-27T13:13:51.460Z,30
2022-07-27T13:21:49.137Z,30
2022-07-27T13:22:29.790Z,30
2022-07-27T13:23:10.232Z,30
2022-07-27T13:23:54.099Z,30
2022-07-27T13:24:37.708Z,30
2022-07-27T13:28:38.017Z,35
2022-07-27T13:29:19.706Z,35
2022-07-27T13:30:00.205Z,35
2022-07-27T13:30:41.433Z,35
2022-07-27T13:31:22.071Z,35
2022-07-27T13:32:02.641Z,35
2022-07-27T13:32:44.082Z,35
2022-07-27T13:35:22.326Z,35
2022-07-27T13:36:03.010Z,35
2022-07-27T13:36:43.469Z,35
2022-07-27T13:40:47.065Z,40
2022-07-27T13:41:27.410Z,40
2022-07-27T13:42:07.994Z,40
2022-07-27T13:42:48.346Z,40
2022-07-27T13:43:29.015Z,40
2022-07-27T13:44:19.057Z,40
2022-07-27T13:45:04.123Z,40
2022-07-27T13:45:30.481Z,40
2022-07-27T13:46:11.099Z,40
2022-07-27T13:46:51.630Z,40
2022-07-27T13:51:26.912Z,55
2022-07-27T13:52:07.212Z,65
2022-07-27T13:52:47.747Z,65
2022-07-27T13:56:51.829Z,65
2022-07-27T13:57:32.328Z,65
2022-07-27T13:58:12.944Z,60
2022-07-27T13:58:53.974Z,65
2022-07-27T13:59:34.521Z,50
2022-07-27T14:00:15.254Z,40
2022-07-27T14:02:53.673Z,40
2022-07-27T14:03:34.278Z,40
2022-07-27T14:04:14.735Z,40
2022-07-27T14:08:58.485Z,50
2022-07-27T14:09:38.965Z,50
2022-07-27T14:10:19.546Z,50
2022-07-27T14:10:59.958Z,50
2022-07-27T14:11:40.508Z,45
2022-07-27T14:12:20.945Z,45
2022-07-27T14:13:01.448Z,45
2022-07-27T14:13:41.975Z,45
2022-07-27T14:14:24.393Z,45
2022-07-27T14:15:02.936Z,45
2022-07-27T14:21:50.304Z,40
2022-07-27T14:22:30.812Z,40
2022-07-27T14:23:11.321Z,40
2022-07-27T14:24:36.181Z,40
2022-07-27T14:25:12.880Z,40
2022-07-27T14:31:18.742Z,40
2022-07-27T14:31:59.225Z,40
2022-07-27T14:32:39.744Z,40
2022-07-27T14:33:20.362Z,30
2022-07-27T14:34:00.915Z,35
2022-07-27T14:34:41.556Z,30
2022-07-27T14:35:22.060Z,35
2022-07-27T14:36:02.644Z,35
2022-07-27T14:42:48.077Z,35
2022-07-27T14:43:28.512Z,35
2022-07-27T14:44:08.988Z,35
2022-07-27T14:44:49.516Z,35
2022-07-27T14:45:44.474Z,35
2022-07-27T14:46:10.482Z,35
2022-07-27T14:46:51.042Z,35
2022-07-27T14:47:31.455Z,35
2022-07-27T14:48:13.987Z,30
2022-07-27T14:49:07.876Z,30
2022-07-27T14:49:33.028Z,30
2022-07-27T14:56:18.200Z,35
2022-07-27T14:56:58.565Z,35
2022-07-27T14:57:39.047Z,35
2022-07-27T14:58:19.596Z,35
2022-07-27T14:59:00.071Z,35
2022-07-27T14:59:40.543Z,35
2022-07-27T15:00:21.010Z,30
2022-07-27T15:01:01.626Z,25
2022-07-27T15:01:42.259Z,25
2022-07-27T15:02:22.601Z,25
2022-07-27T15:03:03.155Z,25
2022-07-27T15:09:48.249Z,30
2022-07-27T15:10:29.217Z,30
2022-07-27T15:11:10.257Z,30
2022-07-27T15:11:50.225Z,30
2022-07-27T15:12:34.883Z,30
2022-07-27T15:13:11.362Z,30
2022-07-27T15:13:51.861Z,30
2022-07-27T15:14:32.368Z,30
2022-07-27T15:21:58.601Z,35
2022-07-27T15:22:39.720Z,35
2022-07-27T15:23:20.562Z,35
2022-07-27T15:24:01.532Z,30
2022-07-27T15:24:42.039Z,30
2022-07-27T15:25:22.526Z,30
2022-07-27T15:30:48.483Z,35
2022-07-27T15:31:29.011Z,35
2022-07-27T15:32:09.412Z,35
2022-07-27T15:32:49.946Z,35
2022-07-27T15:33:30.423Z,35
2022-07-27T15:34:10.916Z,35
2022-07-27T15:34:51.422Z,35
2022-07-27T15:35:31.946Z,35
2022-07-27T15:36:12.972Z,35
2022-07-27T15:36:52.953Z,35
2022-07-27T15:44:18.264Z,35
2022-07-27T15:44:58.794Z,35
2022-07-27T15:45:39.229Z,35
2022-07-27T15:46:27.054Z,30
2022-07-27T15:47:00.227Z,25
2022-07-27T15:47:40.713Z,30
2022-07-27T15:48:21.178Z,30
2022-07-27T15:49:01.829Z,35
2022-07-27T15:49:42.182Z,35
2022-07-27T15:50:22.675Z,35
2022-07-27T15:57:48.404Z,35
2022-07-27T15:58:28.910Z,35
2022-07-27T15:59:09.608Z,35
2022-07-27T15:59:49.905Z,35
2022-07-27T16:00:33.169Z,30
2022-07-27T16:01:12.080Z,35
2022-07-27T16:01:51.669Z,35
2022-07-27T16:02:32.132Z,35
2022-07-27T16:03:12.673Z,35
2022-07-27T16:10:38.534Z,35
2022-07-27T16:11:19.372Z,35
2022-07-27T16:11:59.873Z,35
2022-07-27T16:12:40.317Z,35
2022-07-27T16:13:20.839Z,35
2022-07-27T16:14:01.347Z,35
2022-07-27T16:14:41.838Z,35
2022-07-27T16:15:22.323Z,35
2022-07-27T16:16:03.023Z,35
2022-07-27T16:22:08.331Z,30
2022-07-27T16:22:48.901Z,30
2022-07-27T16:23:29.391Z,30
2022-07-27T16:24:09.993Z,30
2022-07-27T16:24:50.448Z,30
2022-07-27T16:25:53.610Z,30
2022-07-27T16:26:11.566Z,30
2022-07-27T16:26:52.050Z,30
2022-07-27T16:27:32.557Z,30
2022-07-27T16:28:13.064Z,30
2022-07-27T16:34:58.406Z,30
2022-07-27T16:35:38.920Z,30
2022-07-27T16:36:19.433Z,25
2022-07-27T16:37:40.391Z,25
2022-07-27T16:38:21.586Z,25
2022-07-27T16:39:02.115Z,25
2022-07-27T16:39:42.763Z,25
2022-07-27T16:44:13.590Z,25
2022-07-27T16:44:54.036Z,25
2022-07-27T16:45:34.646Z,25
2022-07-27T16:50:18.202Z,25
2022-07-27T16:50:58.711Z,25
2022-07-27T16:51:39.209Z,25
2022-07-27T16:52:19.814Z,25
2022-07-27T16:53:00.271Z,25
2022-07-27T16:53:40.774Z,25
2022-07-27T16:54:21.276Z,25
2022-07-27T16:55:01.776Z,25
2022-07-27T16:55:42.272Z,25
2022-07-27T16:56:22.798Z,25
2022-07-27T16:57:03.268Z,25
2022-07-27T17:03:48.307Z,25
2022-07-27T17:04:28.830Z,25
2022-07-27T17:05:09.275Z,25
2022-07-27T17:05:49.853Z,20
2022-07-27T17:06:30.312Z,20
2022-07-27T17:07:12.392Z,20
2022-07-27T17:07:51.601Z,20
2022-07-27T17:08:32.015Z,20
2022-07-27T17:09:12.690Z,20
2022-07-27T17:09:53.073Z,20
2022-07-27T17:13:49.148Z,20
2022-07-27T17:14:27.614Z,20
2022-07-27T17:15:07.947Z,20
2022-07-27T17:18:37.374Z,20
2022-07-27T17:19:14.016Z,15
2022-07-27T17:19:54.165Z,15
2022-07-27T17:20:35.625Z,15
2022-07-27T17:21:15.411Z,15
2022-07-27T17:21:55.897Z,15
2022-07-27T17:29:54.048Z,15
2022-07-27T17:30:38.200Z,15
2022-07-27T17:31:15.823Z,15
2022-07-27T17:32:36.891Z,15
2022-07-27T17:33:17.522Z,15
2022-07-27T17:35:58.490Z,15
2022-07-27T17:36:51.509Z,15
2022-07-27T17:40:13.595Z,10
2022-07-27T17:40:54.246Z,10
2022-07-27T17:41:34.832Z,10
2022-07-27T17:44:17.320Z,10
2022-07-27T17:44:57.802Z,10
2022-07-27T17:45:38.331Z,10
2022-07-27T17:46:19.237Z,10
2022-07-27T17:46:59.978Z,10
2022-07-27T17:47:40.411Z,10
2022-07-27T17:48:20.846Z,10
2022-07-27T17:49:01.395Z,10
2022-07-27T17:50:22.391Z,10
2022-07-27T18:34:45.112Z,5
2022-07-27T18:35:25.475Z,5
2022-07-27T18:36:06.884Z,5
2022-07-27T18:36:47.278Z,5
2022-07-27T18:38:09.380Z,5
2022-07-27T18:38:50.359Z,5
2022-07-27T18:39:33.636Z,5
2022-07-27T18:40:10.456Z,5
2022-07-27T18:40:50.985Z,5
2022-07-27T18:41:31.539Z,5
2022-07-27T18:42:12.095Z,5
2022-07-27T18:42:53.466Z,5
2022-07-27T18:46:19.081Z,5
2022-07-27T18:46:59.528Z,5
2022-07-27T18:47:39.983Z,5
2022-07-27T18:48:20.520Z,5
2022-07-27T18:49:01.267Z,5
2022-07-27T18:49:41.837Z,5
2022-07-27T18:50:22.322Z,5
2022-07-27T18:51:02.824Z,5
2022-07-27T18:53:44.827Z,5
2022-07-27T18:54:29.684Z,5
2022-07-27T18:55:12.440Z,5
2022-07-27T18:55:56.390Z,0
2022-07-27T18:56:34.363Z,0
2022-07-27T18:57:15.660Z,0
2022-07-27T18:57:57.155Z,0
2022-07-27T18:58:38.205Z,0
2022-07-27T18:59:19.657Z,0
2022-07-27T19:00:30.825Z,0
2022-07-27T19:01:23.684Z,0
2022-07-27T19:04:06.713Z,0
2022-07-27T19:04:51.289Z,0
2022-07-27T19:05:40.412Z,0
2022-07-27T19:06:16.693Z,0
2022-07-27T19:06:56.852Z,0
2022-07-27T19:08:19.638Z,0
2022-07-27T19:09:42.602Z,0
2022-07-27T19:10:23.913Z,0
2022-07-27T19:11:52.490Z,0
2022-07-27T19:12:34.485Z,0
2022-07-27T19:13:15.761Z,0
2022-07-27T19:16:59.532Z,0
2022-07-27T19:17:40.401Z,0
2022-07-27T19:18:22.139Z,0
2022-07-27T19:19:03.543Z,0
2022-07-27T19:19:44.758Z,0
2022-07-27T19:23:27.369Z,0
2022-07-27T19:24:08.822Z,0
2022-07-27T19:24:54.454Z,0
2022-07-27T19:25:31.124Z,0
2022-07-27T19:26:14.219Z,0
2022-07-27T19:36:42.561Z,0
2022-07-27T19:37:23.325Z,0
2022-07-27T19:38:04.611Z,0
2022-07-27T19:38:45.680Z,0
2022-07-27T19:39:26.742Z,0
2022-07-27T19:40:20.635Z,0
2022-07-27T19:40:48.730Z,0
2022-07-27T19:41:30.049Z,0
2022-07-27T19:47:31.709Z,0
2022-07-27T19:48:12.738Z,0
2022-07-27T19:48:53.825Z,0
2022-07-27T19:49:34.324Z,0
2022-07-27T19:50:15.302Z,0
2022-07-27T19:50:55.811Z,0
2022-07-27T19:51:36.629Z,0
2022-07-27T19:52:17.059Z,0
2022-07-27T19:52:57.828Z,0
2022-07-27T19:53:38.397Z,0
2022-07-27T20:00:23.903Z,0
2022-07-27T20:01:04.938Z,0
2022-07-27T20:01:45.460Z,0
2022-07-27T20:02:26.329Z,0
2022-07-27T20:03:06.815Z,0
2022-07-27T20:03:48.781Z,0
2022-07-27T20:04:27.994Z,0
2022-07-27T20:05:08.443Z,0
2022-07-27T20:09:53.779Z,0
2022-07-27T20:10:34.906Z,0
2022-07-27T20:11:15.679Z,0
2022-07-27T20:12:00.218Z,0
2022-07-27T20:12:36.601Z,0
2022-07-27T20:13:17.221Z,0
2022-07-27T20:13:58.019Z,0
2022-07-27T20:19:24.199Z,0
2022-07-27T20:20:05.329Z,0
2022-07-27T20:20:45.860Z,0
2022-07-27T20:21:27.564Z,0
2022-07-27T20:22:08.293Z,0
2022-07-27T20:29:21.567Z,0
2022-07-27T20:31:24.025Z,0
2022-07-27T20:32:08.690Z,0
2022-07-27T20:33:46.369Z,0
2022-07-27T20:35:52.336Z,0
2022-07-27T20:36:33.718Z,0
2022-07-27T20:37:15.179Z,0
2022-07-27T20:37:56.220Z,0
2022-07-27T20:42:16.405Z,0
2022-07-27T20:42:56.994Z,0
2022-07-27T20:43:37.504Z,0
2022-07-27T20:44:18.180Z,0
2022-07-27T20:44:58.730Z,0
2022-07-27T20:45:39.275Z,0
2022-07-27T20:46:19.888Z,0
2022-07-27T20:47:00.578Z,0
2022-07-27T20:47:41.166Z,0
2022-07-27T20:48:21.989Z,0
2022-07-27T20:55:07.485Z,0
2022-07-27T20:55:48.034Z,0
2022-07-27T20:56:28.482Z,0
2022-07-27T20:57:09.046Z,0
2022-07-27T20:57:49.488Z,0
2022-07-27T20:58:30.035Z,0
2022-07-27T20:59:16.426Z,0
2022-07-27T20:59:51.090Z,0
2022-07-27T21:00:31.587Z,0
2022-07-27T21:01:12.224Z,0
2022-07-27T21:06:37.164Z,0
2022-07-27T21:07:17.726Z,0
2022-07-27T21:07:58.224Z,0
2022-07-27T21:08:42.902Z,0
2022-07-27T21:09:19.289Z,0
2022-07-27T21:09:59.842Z,0
2022-07-27T21:10:40.288Z,0
2022-07-27T21:11:20.731Z,0
2022-07-27T21:12:01.284Z,0
2022-07-27T21:12:41.846Z,0
2022-07-27T21:18:47.451Z,0
2022-07-27T21:19:27.947Z,0
2022-07-27T21:20:08.436Z,0
2022-07-27T21:20:49.008Z,0
2022-07-27T21:21:29.498Z,0
2022-07-27T21:22:10.468Z,0
2022-07-27T21:22:51.174Z,0
2022-07-27T21:23:31.594Z,0
2022-07-27T21:24:12.634Z,0
2022-07-27T21:27:32.524Z,0
2022-07-27T21:28:15.859Z,0
2022-07-27T21:28:54.758Z,0
2022-07-27T21:30:20.850Z,0
2022-07-27T21:32:26.389Z,0
2022-07-27T21:33:07.212Z,0
2022-07-27T21:33:48.562Z,0
2022-07-27T21:34:30.005Z,0
2022-07-27T21:35:10.564Z,0
2022-07-27T21:40:36.397Z,0
2022-07-27T21:41:16.789Z,0
2022-07-27T21:42:01.824Z,0
2022-07-27T21:42:38.103Z,0
2022-07-27T21:43:18.534Z,0
2022-07-27T21:44:01.248Z,0
2022-07-27T21:49:28.995Z,0
2022-07-27T21:50:08.789Z,0
2022-07-27T21:50:49.586Z,0